Culym, Russia
Current Conditions -  °F | °C
As of 9:00 PM on Friday 19 Dec 2014 (Local Time) from UNNT Reporting Station
Clear Clear  
Wind Chill: -11°   Ceiling: Unl
Heat Index:   Visibility: 6mi
Dew Point:   Wind: 9mph
Humidity: 85%   Direction: 150°SSE
Pressure: 30.62"   Gusts: NA
Location:  55.1°N, 80.97°E
Report Text: UNNT 191400Z 15004MPS CAVOK M16/M18 Q1037 25810160 16810160NOSIG RMK QFE767/1023
Loading
Personal Weather Stations






























Interactive Weather Map New forecast layout! Learn more

10-Day Weather Forecast

Advertisements
Track Severe Weather on mobile